Baie-Trinite, Canada
Current Conditions -  °F | °C
As of 4:00 PM on Friday 31 Oct 2014 (Local Time) from CYBC Reporting Station
Broken Clouds Broken Clouds  
Wind Chill: 31°   Ceiling: 5000
Heat Index: 39°   Visibility: 9mi
Dew Point: 32°   Wind: 14mph
Humidity: 75%   Direction: 230°SW
Pressure: 30.09"   Gusts: NA
Location:  49.43°N, 67.28°W
Report Text: CYBC 312000Z AUTO 23012KT 9SM BKN050 04/M00 A3009 RMK SLP190
Loading
Personal Weather Stations






























Interactive Weather Map
Tropical Storm Tracking
New forecast layout! Learn more

10-Day Weather Forecast

Advertisements
Track Severe Weather on mobile